sensor_id;sensor_type;location;lat;lon;timestamp;pressure;altitude;pressure_sealevel;temperature;humidity
77118;BME280;66072;50.238;19.228;2023-05-17T00:00:52;98123.35;;;11.17;93.69
77118;BME280;66072;50.238;19.228;2023-05-17T00:03:20;98124.11;;;11.16;93.55
77118;BME280;66072;50.238;19.228;2023-05-17T00:05:47;98125.20;;;11.15;93.45
77118;BME280;66072;50.238;19.228;2023-05-17T00:08:15;98121.67;;;11.14;93.54
77118;BME280;66072;50.238;19.228;2023-05-17T00:10:42;98114.63;;;11.11;93.68
77118;BME280;66072;50.238;19.228;2023-05-17T00:13:10;98111.96;;;11.09;93.80
77118;BME280;66072;50.238;19.228;2023-05-17T00:15:38;98111.94;;;11.10;93.70
77118;BME280;66072;50.238;19.228;2023-05-17T00:18:05;98113.68;;;11.09;93.72
77118;BME280;66072;50.238;19.228;2023-05-17T00:20:33;98111.30;;;11.09;93.76
77118;BME280;66072;50.238;19.228;2023-05-17T00:23:01;98113.81;;;11.07;93.82
77118;BME280;66072;50.238;19.228;2023-05-17T00:25:28;98117.20;;;11.04;94.00
77118;BME280;66072;50.238;19.228;2023-05-17T00:27:56;98123.14;;;11.02;93.99
77118;BME280;66072;50.238;19.228;2023-05-17T00:30:24;98126.98;;;11.00;94.02
77118;BME280;66072;50.238;19.228;2023-05-17T00:32:52;98129.41;;;11.00;93.87
77118;BME280;66072;50.238;19.228;2023-05-17T00:35:22;98128.79;;;10.99;94.07
77118;BME280;66072;50.238;19.228;2023-05-17T00:37:50;98126.64;;;10.97;94.17
77118;BME280;66072;50.238;19.228;2023-05-17T00:40:17;98126.73;;;10.96;94.10
77118;BME280;66072;50.238;19.228;2023-05-17T00:42:45;98117.34;;;10.96;94.33
77118;BME280;66072;50.238;19.228;2023-05-17T00:45:13;98115.15;;;10.95;94.32
77118;BME280;66072;50.238;19.228;2023-05-17T00:47:40;98112.45;;;10.94;94.14
77118;BME280;66072;50.238;19.228;2023-05-17T00:50:08;98116.55;;;10.94;94.21
77118;BME280;66072;50.238;19.228;2023-05-17T00:52:37;98121.23;;;10.93;94.35
77118;BME280;66072;50.238;19.228;2023-05-17T00:55:05;98118.22;;;10.92;94.18
77118;BME280;66072;50.238;19.228;2023-05-17T00:57:32;98113.16;;;10.90;94.36
77118;BME280;66072;50.238;19.228;2023-05-17T01:00:00;98113.42;;;10.89;94.42
77118;BME280;66072;50.238;19.228;2023-05-17T01:02:31;98114.20;;;10.87;94.60
77118;BME280;66072;50.238;19.228;2023-05-17T01:04:58;98113.02;;;10.87;94.68
77118;BME280;66072;50.238;19.228;2023-05-17T01:07:26;98114.21;;;10.87;94.67
77118;BME280;66072;50.238;19.228;2023-05-17T01:09:54;98106.20;;;10.87;94.71
77118;BME280;66072;50.238;19.228;2023-05-17T01:15:22;98108.93;;;10.87;94.64
77118;BME280;66072;50.238;19.228;2023-05-17T01:18:19;98101.09;;;10.86;94.63
77118;BME280;66072;50.238;19.228;2023-05-17T01:20:46;98103.63;;;10.86;94.65
77118;BME280;66072;50.238;19.228;2023-05-17T01:26:12;98108.04;;;10.87;94.54
77118;BME280;66072;50.238;19.228;2023-05-17T01:28:43;98109.77;;;10.87;94.62
77118;BME280;66072;50.238;19.228;2023-05-17T01:31:12;98108.42;;;10.86;94.54
77118;BME280;66072;50.238;19.228;2023-05-17T01:33:40;98110.83;;;10.86;94.48
77118;BME280;66072;50.238;19.228;2023-05-17T01:36:08;98115.09;;;10.87;94.40
77118;BME280;66072;50.238;19.228;2023-05-17T01:38:36;98121.08;;;10.87;94.51
77118;BME280;66072;50.238;19.228;2023-05-17T01:41:14;98120.78;;;10.86;94.98
77118;BME280;66072;50.238;19.228;2023-05-17T01:44:11;98117.21;;;10.85;94.81
77118;BME280;66072;50.238;19.228;2023-05-17T01:46:44;98123.52;;;10.85;94.85
77118;BME280;66072;50.238;19.228;2023-05-17T01:49:20;98123.16;;;10.86;94.91
77118;BME280;66072;50.238;19.228;2023-05-17T01:51:57;98122.66;;;10.85;94.77
77118;BME280;66072;50.238;19.228;2023-05-17T01:54:44;98121.64;;;10.86;94.50
77118;BME280;66072;50.238;19.228;2023-05-17T01:57:14;98121.27;;;10.86;94.52
77118;BME280;66072;50.238;19.228;2023-05-17T01:59:43;98120.91;;;10.87;94.59
77118;BME280;66072;50.238;19.228;2023-05-17T02:02:11;98120.73;;;10.87;94.50
77118;BME280;66072;50.238;19.228;2023-05-17T02:04:39;98124.16;;;10.86;94.50
77118;BME280;66072;50.238;19.228;2023-05-17T02:07:07;98127.56;;;10.87;94.26
77118;BME280;66072;50.238;19.228;2023-05-17T02:09:36;98128.58;;;10.87;94.48
77118;BME280;66072;50.238;19.228;2023-05-17T02:12:04;98137.83;;;10.87;94.33
77118;BME280;66072;50.238;19.228;2023-05-17T02:14:32;98138.99;;;10.88;94.30
77118;BME280;66072;50.238;19.228;2023-05-17T02:17:00;98135.07;;;10.87;94.36
77118;BME280;66072;50.238;19.228;2023-05-17T02:19:27;98131.34;;;10.87;94.19
77118;BME280;66072;50.238;19.228;2023-05-17T02:21:55;98135.11;;;10.87;94.18
77118;BME280;66072;50.238;19.228;2023-05-17T02:24:23;98136.66;;;10.86;94.24
77118;BME280;66072;50.238;19.228;2023-05-17T02:26:50;98138.70;;;10.87;94.24
77118;BME280;66072;50.238;19.228;2023-05-17T02:29:18;98139.55;;;10.87;94.23
77118;BME280;66072;50.238;19.228;2023-05-17T02:31:45;98141.59;;;10.87;94.15
77118;BME280;66072;50.238;19.228;2023-05-17T02:34:13;98147.23;;;10.87;94.08
77118;BME280;66072;50.238;19.228;2023-05-17T02:36:41;98143.30;;;10.87;94.25
77118;BME280;66072;50.238;19.228;2023-05-17T02:39:08;98146.73;;;10.87;94.25
77118;BME280;66072;50.238;19.228;2023-05-17T02:41:36;98143.27;;;10.88;94.10
77118;BME280;66072;50.238;19.228;2023-05-17T02:44:03;98136.80;;;10.87;94.16
77118;BME280;66072;50.238;19.228;2023-05-17T02:46:31;98143.83;;;10.87;94.28
77118;BME280;66072;50.238;19.228;2023-05-17T02:48:59;98145.39;;;10.86;94.20
77118;BME280;66072;50.238;19.228;2023-05-17T02:51:26;98151.39;;;10.86;94.38
77118;BME280;66072;50.238;19.228;2023-05-17T02:53:54;98148.66;;;10.86;94.41
77118;BME280;66072;50.238;19.228;2023-05-17T02:56:22;98147.82;;;10.85;94.48
77118;BME280;66072;50.238;19.228;2023-05-17T02:58:49;98142.98;;;10.86;94.51
77118;BME280;66072;50.238;19.228;2023-05-17T03:01:17;98144.06;;;10.85;94.49
77118;BME280;66072;50.238;19.228;2023-05-17T03:03:44;98148.17;;;10.85;94.57
77118;BME280;66072;50.238;19.228;2023-05-17T03:06:12;98151.40;;;10.86;94.79
77118;BME280;66072;50.238;19.228;2023-05-17T03:08:40;98150.22;;;10.85;94.65
77118;BME280;66072;50.238;19.228;2023-05-17T03:11:07;98152.56;;;10.86;94.77
77118;BME280;66072;50.238;19.228;2023-05-17T03:13:35;98155.83;;;10.86;94.64
77118;BME280;66072;50.238;19.228;2023-05-17T03:16:03;98162.83;;;10.87;94.66
77118;BME280;66072;50.238;19.228;2023-05-17T03:18:34;98168.06;;;10.88;94.74
77118;BME280;66072;50.238;19.228;2023-05-17T03:21:01;98168.70;;;10.89;95.18
77118;BME280;66072;50.238;19.228;2023-05-17T03:23:29;98167.98;;;10.89;95.05
77118;BME280;66072;50.238;19.228;2023-05-17T03:25:57;98166.09;;;10.89;95.07
77118;BME280;66072;50.238;19.228;2023-05-17T03:28:24;98166.52;;;10.91;95.14
77118;BME280;66072;50.238;19.228;2023-05-17T03:30:52;98161.02;;;10.91;95.01
77118;BME280;66072;50.238;19.228;2023-05-17T03:33:20;98146.59;;;10.92;95.08
77118;BME280;66072;50.238;19.228;2023-05-17T03:35:49;98140.72;;;10.94;95.40
77118;BME280;66072;50.238;19.228;2023-05-17T03:38:17;98147.03;;;10.94;95.85
77118;BME280;66072;50.238;19.228;2023-05-17T03:40:45;98153.12;;;10.95;95.81
77118;BME280;66072;50.238;19.228;2023-05-17T03:43:12;98158.71;;;10.96;95.95
77118;BME280;66072;50.238;19.228;2023-05-17T03:45:40;98163.63;;;10.97;96.05
77118;BME280;66072;50.238;19.228;2023-05-17T03:48:08;98165.15;;;10.97;96.28
77118;BME280;66072;50.238;19.228;2023-05-17T03:50:35;98174.08;;;10.97;96.33
77118;BME280;66072;50.238;19.228;2023-05-17T03:53:03;98179.63;;;10.95;96.27
77118;BME280;66072;50.238;19.228;2023-05-17T03:55:31;98183.94;;;10.95;96.21
77118;BME280;66072;50.238;19.228;2023-05-17T03:57:59;98191.33;;;10.94;96.19
77118;BME280;66072;50.238;19.228;2023-05-17T04:00:27;98194.77;;;10.94;96.03
77118;BME280;66072;50.238;19.228;2023-05-17T04:02:54;98195.78;;;10.94;96.00
77118;BME280;66072;50.238;19.228;2023-05-17T04:05:22;98200.54;;;10.95;95.96
77118;BME280;66072;50.238;19.228;2023-05-17T04:07:50;98200.83;;;10.96;95.96
77118;BME280;66072;50.238;19.228;2023-05-17T04:10:17;98199.21;;;10.97;95.90
77118;BME280;66072;50.238;19.228;2023-05-17T04:12:45;98198.82;;;10.98;95.99
77118;BME280;66072;50.238;19.228;2023-05-17T04:15:13;98200.48;;;10.99;95.84
77118;BME280;66072;50.238;19.228;2023-05-17T04:17:40;98204.41;;;11.02;96.00
77118;BME280;66072;50.238;19.228;2023-05-17T04:20:08;98206.05;;;11.04;95.95
77118;BME280;66072;50.238;19.228;2023-05-17T04:22:36;98201.71;;;11.05;95.85
77118;BME280;66072;50.238;19.228;2023-05-17T04:25:05;98206.14;;;11.06;96.03
77118;BME280;66072;50.238;19.228;2023-05-17T04:27:32;98207.20;;;11.05;95.87
77118;BME280;66072;50.238;19.228;2023-05-17T04:30:00;98210.84;;;11.04;95.89
77118;BME280;66072;50.238;19.228;2023-05-17T04:32:27;98208.10;;;11.04;95.94
77118;BME280;66072;50.238;19.228;2023-05-17T04:34:55;98203.41;;;11.02;95.90
77118;BME280;66072;50.238;19.228;2023-05-17T04:37:23;98201.40;;;11.01;95.82
77118;BME280;66072;50.238;19.228;2023-05-17T04:39:52;98198.52;;;11.01;95.71
77118;BME280;66072;50.238;19.228;2023-05-17T04:42:19;98201.90;;;10.98;95.81
77118;BME280;66072;50.238;19.228;2023-05-17T04:44:47;98216.30;;;10.95;95.52
77118;BME280;66072;50.238;19.228;2023-05-17T04:47:15;98225.52;;;10.92;95.56
77118;BME280;66072;50.238;19.228;2023-05-17T04:49:42;98230.23;;;10.90;95.47
77118;BME280;66072;50.238;19.228;2023-05-17T04:52:10;98236.61;;;10.86;95.43
77118;BME280;66072;50.238;19.228;2023-05-17T04:54:37;98239.85;;;10.83;95.42
77118;BME280;66072;50.238;19.228;2023-05-17T04:57:05;98239.45;;;10.80;95.54
77118;BME280;66072;50.238;19.228;2023-05-17T04:59:33;98245.90;;;10.78;95.43
77118;BME280;66072;50.238;19.228;2023-05-17T05:02:00;98242.08;;;10.75;95.16
77118;BME280;66072;50.238;19.228;2023-05-17T05:04:28;98244.33;;;10.75;95.22
77118;BME280;66072;50.238;19.228;2023-05-17T05:06:56;98244.88;;;10.74;95.17
77118;BME280;66072;50.238;19.228;2023-05-17T05:09:23;98248.02;;;10.73;95.08
77118;BME280;66072;50.238;19.228;2023-05-17T05:11:51;98249.77;;;10.72;95.01
77118;BME280;66072;50.238;19.228;2023-05-17T05:14:18;98255.91;;;10.72;95.14
77118;BME280;66072;50.238;19.228;2023-05-17T05:16:46;98251.52;;;10.71;95.00
77118;BME280;66072;50.238;19.228;2023-05-17T05:19:14;98247.27;;;10.71;94.97
77118;BME280;66072;50.238;19.228;2023-05-17T05:21:44;98244.33;;;10.72;94.89
77118;BME280;66072;50.238;19.228;2023-05-17T05:24:11;98247.46;;;10.74;95.03
77118;BME280;66072;50.238;19.228;2023-05-17T05:26:39;98243.52;;;10.74;94.89
77118;BME280;66072;50.238;19.228;2023-05-17T05:29:06;98248.23;;;10.72;94.73
77118;BME280;66072;50.238;19.228;2023-05-17T05:31:34;98254.70;;;10.72;94.96
77118;BME280;66072;50.238;19.228;2023-05-17T05:34:02;98258.48;;;10.72;94.84
77118;BME280;66072;50.238;19.228;2023-05-17T05:36:29;98267.14;;;10.70;94.81
77118;BME280;66072;50.238;19.228;2023-05-17T05:38:57;98276.77;;;10.70;94.80
77118;BME280;66072;50.238;19.228;2023-05-17T05:41:25;98283.30;;;10.69;94.71
77118;BME280;66072;50.238;19.228;2023-05-17T05:43:52;98282.94;;;10.66;94.84
77118;BME280;66072;50.238;19.228;2023-05-17T05:46:20;98292.41;;;10.65;94.85
77118;BME280;66072;50.238;19.228;2023-05-17T05:48:48;98295.19;;;10.64;94.80
77118;BME280;66072;50.238;19.228;2023-05-17T05:51:16;98301.11;;;10.62;94.90
77118;BME280;66072;50.238;19.228;2023-05-17T05:53:44;98302.19;;;10.60;94.76
77118;BME280;66072;50.238;19.228;2023-05-17T05:56:11;98305.75;;;10.61;94.82
77118;BME280;66072;50.238;19.228;2023-05-17T05:58:39;98306.16;;;10.60;94.97
77118;BME280;66072;50.238;19.228;2023-05-17T06:01:06;98312.20;;;10.59;95.06
77118;BME280;66072;50.238;19.228;2023-05-17T06:03:34;98313.53;;;10.56;95.05
77118;BME280;66072;50.238;19.228;2023-05-17T06:06:02;98317.17;;;10.55;94.97
77118;BME280;66072;50.238;19.228;2023-05-17T06:08:30;98313.95;;;10.54;94.93
77118;BME280;66072;50.238;19.228;2023-05-17T06:10:57;98312.73;;;10.55;95.01
77118;BME280;66072;50.238;19.228;2023-05-17T06:13:25;98316.21;;;10.54;95.07
77118;BME280;66072;50.238;19.228;2023-05-17T06:15:53;98319.77;;;10.51;95.17
77118;BME280;66072;50.238;19.228;2023-05-17T06:18:20;98322.14;;;10.52;95.00
77118;BME280;66072;50.238;19.228;2023-05-17T06:20:48;98321.90;;;10.53;94.95
77118;BME280;66072;50.238;19.228;2023-05-17T06:23:15;98325.08;;;10.54;95.06
77118;BME280;66072;50.238;19.228;2023-05-17T06:25:43;98323.89;;;10.54;95.01
77118;BME280;66072;50.238;19.228;2023-05-17T06:28:11;98330.09;;;10.53;94.85
77118;BME280;66072;50.238;19.228;2023-05-17T06:30:38;98332.60;;;10.54;95.01
77118;BME280;66072;50.238;19.228;2023-05-17T06:33:06;98338.02;;;10.55;95.08
77118;BME280;66072;50.238;19.228;2023-05-17T06:35:34;98340.16;;;10.57;94.83
77118;BME280;66072;50.238;19.228;2023-05-17T06:38:22;98339.36;;;10.56;94.81
77118;BME280;66072;50.238;19.228;2023-05-17T06:40:53;98342.38;;;10.54;94.74
77118;BME280;66072;50.238;19.228;2023-05-17T06:43:21;98343.17;;;10.52;94.81
77118;BME280;66072;50.238;19.228;2023-05-17T06:45:49;98349.27;;;10.53;94.91
77118;BME280;66072;50.238;19.228;2023-05-17T06:48:17;98353.05;;;10.52;94.84
77118;BME280;66072;50.238;19.228;2023-05-17T06:50:45;98352.05;;;10.52;94.84
77118;BME280;66072;50.238;19.228;2023-05-17T06:53:13;98354.39;;;10.53;94.83
77118;BME280;66072;50.238;19.228;2023-05-17T06:55:40;98349.77;;;10.53;94.86
77118;BME280;66072;50.238;19.228;2023-05-17T06:58:08;98353.23;;;10.52;94.68
77118;BME280;66072;50.238;19.228;2023-05-17T07:00:35;98354.93;;;10.52;94.81
77118;BME280;66072;50.238;19.228;2023-05-17T07:03:03;98356.05;;;10.50;94.83
77118;BME280;66072;50.238;19.228;2023-05-17T07:05:31;98358.33;;;10.49;94.57
77118;BME280;66072;50.238;19.228;2023-05-17T07:07:59;98364.52;;;10.48;94.58
77118;BME280;66072;50.238;19.228;2023-05-17T07:10:27;98368.10;;;10.45;94.51
77118;BME280;66072;50.238;19.228;2023-05-17T07:12:54;98374.38;;;10.43;94.58
77118;BME280;66072;50.238;19.228;2023-05-17T07:15:22;98383.65;;;10.41;94.61
77118;BME280;66072;50.238;19.228;2023-05-17T07:17:50;98389.55;;;10.40;94.42
77118;BME280;66072;50.238;19.228;2023-05-17T07:20:18;98396.83;;;10.38;94.44
77118;BME280;66072;50.238;19.228;2023-05-17T07:22:46;98399.58;;;10.34;94.57
77118;BME280;66072;50.238;19.228;2023-05-17T07:25:13;98397.98;;;10.32;94.49
77118;BME280;66072;50.238;19.228;2023-05-17T07:27:44;98395.38;;;10.29;94.68
77118;BME280;66072;50.238;19.228;2023-05-17T07:30:12;98397.41;;;10.25;94.66
77118;BME280;66072;50.238;19.228;2023-05-17T07:32:40;98399.60;;;10.21;94.77
77118;BME280;66072;50.238;19.228;2023-05-17T07:35:08;98409.20;;;10.17;94.41
77118;BME280;66072;50.238;19.228;2023-05-17T07:37:38;98413.39;;;10.11;94.38
77118;BME280;66072;50.238;19.228;2023-05-17T07:40:06;98413.95;;;10.07;94.35
77118;BME280;66072;50.238;19.228;2023-05-17T07:42:34;98423.39;;;10.02;94.31
77118;BME280;66072;50.238;19.228;2023-05-17T07:45:02;98430.87;;;9.99;94.39
77118;BME280;66072;50.238;19.228;2023-05-17T07:47:29;98429.19;;;9.94;94.21
77118;BME280;66072;50.238;19.228;2023-05-17T07:49:59;98435.13;;;9.88;93.93
77118;BME280;66072;50.238;19.228;2023-05-17T07:52:27;98431.40;;;9.80;93.79
77118;BME280;66072;50.238;19.228;2023-05-17T07:54:54;98433.35;;;9.74;93.71
77118;BME280;66072;50.238;19.228;2023-05-17T07:57:22;98441.30;;;9.67;93.59
77118;BME280;66072;50.238;19.228;2023-05-17T07:59:50;98443.94;;;9.62;93.59
77118;BME280;66072;50.238;19.228;2023-05-17T08:02:17;98451.50;;;9.57;93.66
77118;BME280;66072;50.238;19.228;2023-05-17T08:04:45;98459.95;;;9.51;93.79
77118;BME280;66072;50.238;19.228;2023-05-17T08:07:13;98465.73;;;9.48;93.82
77118;BME280;66072;50.238;19.228;2023-05-17T08:09:40;98471.73;;;9.47;93.78
77118;BME280;66072;50.238;19.228;2023-05-17T08:12:08;98473.97;;;9.47;93.76
77118;BME280;66072;50.238;19.228;2023-05-17T08:14:35;98477.77;;;9.45;93.82
77118;BME280;66072;50.238;19.228;2023-05-17T08:17:03;98476.80;;;9.44;94.00
77118;BME280;66072;50.238;19.228;2023-05-17T08:19:31;98477.04;;;9.42;93.97
77118;BME280;66072;50.238;19.228;2023-05-17T08:21:59;98473.77;;;9.43;94.15
77118;BME280;66072;50.238;19.228;2023-05-17T08:24:27;98477.52;;;9.43;94.13
77118;BME280;66072;50.238;19.228;2023-05-17T08:26:54;98481.75;;;9.44;94.27
77118;BME280;66072;50.238;19.228;2023-05-17T08:29:22;98482.95;;;9.43;94.17
77118;BME280;66072;50.238;19.228;2023-05-17T08:31:49;98480.91;;;9.43;94.19
77118;BME280;66072;50.238;19.228;2023-05-17T08:34:17;98484.08;;;9.46;94.01
77118;BME280;66072;50.238;19.228;2023-05-17T08:36:44;98489.38;;;9.50;93.99
77118;BME280;66072;50.238;19.228;2023-05-17T08:39:12;98484.61;;;9.53;94.11
77118;BME280;66072;50.238;19.228;2023-05-17T08:41:40;98485.81;;;9.57;93.86
77118;BME280;66072;50.238;19.228;2023-05-17T08:44:08;98488.14;;;9.59;93.90
77118;BME280;66072;50.238;19.228;2023-05-17T08:46:36;98493.16;;;9.61;93.83
77118;BME280;66072;50.238;19.228;2023-05-17T08:49:04;98493.32;;;9.61;93.73
77118;BME280;66072;50.238;19.228;2023-05-17T08:51:34;98501.46;;;9.59;93.78
77118;BME280;66072;50.238;19.228;2023-05-17T08:54:02;98502.96;;;9.59;93.81
77118;BME280;66072;50.238;19.228;2023-05-17T08:56:30;98507.50;;;9.61;93.76
77118;BME280;66072;50.238;19.228;2023-05-17T08:58:58;98512.17;;;9.64;93.89
77118;BME280;66072;50.238;19.228;2023-05-17T09:01:26;98515.77;;;9.63;93.66
77118;BME280;66072;50.238;19.228;2023-05-17T09:03:59;98515.80;;;9.59;93.54
77118;BME280;66072;50.238;19.228;2023-05-17T09:06:26;98514.04;;;9.60;93.63
77118;BME280;66072;50.238;19.228;2023-05-17T09:08:56;98512.36;;;9.63;93.74
77118;BME280;66072;50.238;19.228;2023-05-17T09:11:30;98509.31;;;9.67;93.56
77118;BME280;66072;50.238;19.228;2023-05-17T09:13:59;98511.56;;;9.74;93.58
77118;BME280;66072;50.238;19.228;2023-05-17T09:16:28;98511.45;;;9.77;93.42
77118;BME280;66072;50.238;19.228;2023-05-17T09:18:57;98511.54;;;9.79;93.25
77118;BME280;66072;50.238;19.228;2023-05-17T09:21:26;98514.48;;;9.82;93.31
77118;BME280;66072;50.238;19.228;2023-05-17T09:23:54;98514.80;;;9.83;93.28
77118;BME280;66072;50.238;19.228;2023-05-17T09:29:09;98512.65;;;9.89;93.17
77118;BME280;66072;50.238;19.228;2023-05-17T09:31:41;98511.80;;;9.92;93.12
77118;BME280;66072;50.238;19.228;2023-05-17T09:34:09;98521.15;;;9.93;92.69
77118;BME280;66072;50.238;19.228;2023-05-17T09:36:41;98523.73;;;9.97;92.72
77118;BME280;66072;50.238;19.228;2023-05-17T09:39:09;98528.19;;;10.01;92.59
77118;BME280;66072;50.238;19.228;2023-05-17T09:41:45;98536.56;;;9.97;92.34
77118;BME280;66072;50.238;19.228;2023-05-17T09:44:15;98540.05;;;9.95;92.25
77118;BME280;66072;50.238;19.228;2023-05-17T09:46:45;98550.67;;;9.94;92.26
77118;BME280;66072;50.238;19.228;2023-05-17T09:49:13;98552.38;;;9.95;92.21
77118;BME280;66072;50.238;19.228;2023-05-17T09:51:43;98553.70;;;9.95;91.74
77118;BME280;66072;50.238;19.228;2023-05-17T09:54:11;98552.88;;;9.95;91.53
77118;BME280;66072;50.238;19.228;2023-05-17T09:56:39;98552.79;;;9.93;91.39
77118;BME280;66072;50.238;19.228;2023-05-17T09:59:11;98556.27;;;9.91;91.67
77118;BME280;66072;50.238;19.228;2023-05-17T10:01:40;98559.02;;;9.91;91.68
77118;BME280;66072;50.238;19.228;2023-05-17T10:04:09;98559.80;;;9.89;91.61
77118;BME280;66072;50.238;19.228;2023-05-17T10:06:38;98564.30;;;9.87;91.42
77118;BME280;66072;50.238;19.228;2023-05-17T10:09:21;98563.11;;;9.83;91.32
77118;BME280;66072;50.238;19.228;2023-05-17T10:11:51;98559.79;;;9.77;91.46
77118;BME280;66072;50.238;19.228;2023-05-17T10:16:50;98560.73;;;9.75;91.80
77118;BME280;66072;50.238;19.228;2023-05-17T10:19:22;98561.16;;;9.73;91.85
77118;BME280;66072;50.238;19.228;2023-05-17T10:21:51;98558.03;;;9.74;91.86
77118;BME280;66072;50.238;19.228;2023-05-17T10:24:19;98562.70;;;9.77;91.74
77118;BME280;66072;50.238;19.228;2023-05-17T10:26:50;98564.48;;;9.83;91.87
77118;BME280;66072;50.238;19.228;2023-05-17T10:29:19;98571.77;;;9.97;91.85
77118;BME280;66072;50.238;19.228;2023-05-17T10:31:48;98575.24;;;10.03;91.45
77118;BME280;66072;50.238;19.228;2023-05-17T10:34:17;98577.98;;;10.15;91.09
77118;BME280;66072;50.238;19.228;2023-05-17T10:36:48;98576.80;;;10.15;91.12
77118;BME280;66072;50.238;19.228;2023-05-17T10:39:16;98578.04;;;10.18;91.26
77118;BME280;66072;50.238;19.228;2023-05-17T10:41:45;98575.90;;;10.20;90.54
77118;BME280;66072;50.238;19.228;2023-05-17T10:44:15;98585.59;;;10.13;90.57
77118;BME280;66072;50.238;19.228;2023-05-17T10:46:54;98587.81;;;10.13;90.42
77118;BME280;66072;50.238;19.228;2023-05-17T10:49:29;98592.67;;;10.07;89.99
77118;BME280;66072;50.238;19.228;2023-05-17T10:51:58;98594.16;;;9.92;90.20
77118;BME280;66072;50.238;19.228;2023-05-17T10:54:34;98600.91;;;9.82;90.44
77118;BME280;66072;50.238;19.228;2023-05-17T10:57:05;98608.11;;;9.78;90.16
77118;BME280;66072;50.238;19.228;2023-05-17T10:59:54;98611.29;;;9.75;89.61
77118;BME280;66072;50.238;19.228;2023-05-17T11:02:23;98614.66;;;9.71;90.09
77118;BME280;66072;50.238;19.228;2023-05-17T11:04:51;98618.01;;;9.65;90.27
77118;BME280;66072;50.238;19.228;2023-05-17T11:07:21;98622.38;;;9.62;90.40
77118;BME280;66072;50.238;19.228;2023-05-17T11:10:01;98625.52;;;9.60;90.58
77118;BME280;66072;50.238;19.228;2023-05-17T11:12:45;98630.49;;;9.56;90.66
77118;BME280;66072;50.238;19.228;2023-05-17T11:15:14;98627.95;;;9.51;90.58
77118;BME280;66072;50.238;19.228;2023-05-17T11:23:19;98631.41;;;9.46;90.32
77118;BME280;66072;50.238;19.228;2023-05-17T11:25:48;98626.34;;;9.49;89.90
77118;BME280;66072;50.238;19.228;2023-05-17T11:28:19;98629.36;;;9.46;89.37
77118;BME280;66072;50.238;19.228;2023-05-17T11:30:47;98629.53;;;9.41;89.70
77118;BME280;66072;50.238;19.228;2023-05-17T11:33:14;98630.27;;;9.36;89.36
77118;BME280;66072;50.238;19.228;2023-05-17T11:36:04;98633.61;;;9.33;89.61
77118;BME280;66072;50.238;19.228;2023-05-17T11:38:32;98640.63;;;9.33;89.61
77118;BME280;66072;50.238;19.228;2023-05-17T11:41:19;98639.68;;;9.35;89.58
77118;BME280;66072;50.238;19.228;2023-05-17T11:43:50;98641.97;;;9.37;89.67
77118;BME280;66072;50.238;19.228;2023-05-17T11:46:22;98638.95;;;9.41;89.53
77118;BME280;66072;50.238;19.228;2023-05-17T11:48:51;98636.38;;;9.41;89.49
77118;BME280;66072;50.238;19.228;2023-05-17T11:51:19;98634.85;;;9.45;89.63
77118;BME280;66072;50.238;19.228;2023-05-17T11:53:54;98636.00;;;9.50;89.32
77118;BME280;66072;50.238;19.228;2023-05-17T11:56:23;98634.49;;;9.54;89.54
77118;BME280;66072;50.238;19.228;2023-05-17T11:59:09;98635.30;;;9.64;89.60
77118;BME280;66072;50.238;19.228;2023-05-17T12:01:46;98642.48;;;9.67;89.20
77118;BME280;66072;50.238;19.228;2023-05-17T12:04:25;98638.40;;;9.67;88.79
77118;BME280;66072;50.238;19.228;2023-05-17T12:06:54;98640.05;;;9.82;88.94
77118;BME280;66072;50.238;19.228;2023-05-17T12:09:22;98650.04;;;9.92;88.22
77118;BME280;66072;50.238;19.228;2023-05-17T12:11:50;98647.34;;;9.96;88.10
77118;BME280;66072;50.238;19.228;2023-05-17T12:14:18;98657.94;;;9.95;87.70
77118;BME280;66072;50.238;19.228;2023-05-17T12:16:50;98660.84;;;9.95;88.10
77118;BME280;66072;50.238;19.228;2023-05-17T12:19:20;98668.62;;;9.89;88.10
77118;BME280;66072;50.238;19.228;2023-05-17T12:21:49;98671.39;;;9.80;87.94
77118;BME280;66072;50.238;19.228;2023-05-17T12:24:17;98671.63;;;9.74;88.46
77118;BME280;66072;50.238;19.228;2023-05-17T12:26:45;98676.05;;;9.70;88.63
77118;BME280;66072;50.238;19.228;2023-05-17T12:29:13;98677.40;;;9.70;88.79
77118;BME280;66072;50.238;19.228;2023-05-17T12:31:48;98678.81;;;9.65;89.07
77118;BME280;66072;50.238;19.228;2023-05-17T12:34:17;98683.81;;;9.50;89.35
77118;BME280;66072;50.238;19.228;2023-05-17T12:36:45;98684.44;;;9.38;89.39
77118;BME280;66072;50.238;19.228;2023-05-17T12:39:14;98689.34;;;9.31;89.91
77118;BME280;66072;50.238;19.228;2023-05-17T12:41:41;98687.33;;;9.26;90.16
77118;BME280;66072;50.238;19.228;2023-05-17T12:44:10;98688.20;;;9.20;90.08
77118;BME280;66072;50.238;19.228;2023-05-17T12:46:42;98687.17;;;9.20;90.36
77118;BME280;66072;50.238;19.228;2023-05-17T12:49:10;98687.62;;;9.22;89.95
77118;BME280;66072;50.238;19.228;2023-05-17T12:51:43;98689.16;;;9.22;89.87
77118;BME280;66072;50.238;19.228;2023-05-17T12:54:30;98691.02;;;9.23;90.22
77118;BME280;66072;50.238;19.228;2023-05-17T12:57:12;98695.58;;;9.24;89.98
77118;BME280;66072;50.238;19.228;2023-05-17T12:59:56;98703.59;;;9.24;89.42
77118;BME280;66072;50.238;19.228;2023-05-17T13:02:23;98704.83;;;9.23;89.48
77118;BME280;66072;50.238;19.228;2023-05-17T13:04:51;98709.48;;;9.22;89.44
77118;BME280;66072;50.238;19.228;2023-05-17T13:07:23;98708.02;;;9.20;89.36
77118;BME280;66072;50.238;19.228;2023-05-17T13:09:51;98705.96;;;9.15;89.69
77118;BME280;66072;50.238;19.228;2023-05-17T13:12:21;98705.83;;;9.14;89.88
77118;BME280;66072;50.238;19.228;2023-05-17T13:14:50;98711.08;;;9.11;89.82
77118;BME280;66072;50.238;19.228;2023-05-17T13:17:33;98710.52;;;9.12;89.73
77118;BME280;66072;50.238;19.228;2023-05-17T13:20:01;98711.53;;;9.12;89.63
77118;BME280;66072;50.238;19.228;2023-05-17T13:22:28;98709.40;;;9.10;89.36